sensor_id;sensor_type;location;lat;lon;timestamp;temperature;humidity
47845;DHT22;33605;48.822;8.796;2023-10-31T02:43:06;15.30;63.60
47845;DHT22;33605;48.822;8.796;2023-10-31T02:45:32;14.00;58.90
47845;DHT22;33605;48.822;8.796;2023-10-31T02:47:57;14.00;59.30
47845;DHT22;33605;48.822;8.796;2023-10-31T02:50:23;14.00;59.20
47845;DHT22;33605;48.822;8.796;2023-10-31T02:52:48;13.90;59.00
47845;DHT22;33605;48.822;8.796;2023-10-31T02:55:14;13.90;58.90
47845;DHT22;33605;48.822;8.796;2023-10-31T02:57:39;13.90;58.90
47845;DHT22;33605;48.822;8.796;2023-10-31T03:00:05;13.90;58.90
47845;DHT22;33605;48.822;8.796;2023-10-31T03:02:31;13.90;59.00
47845;DHT22;33605;48.822;8.796;2023-10-31T03:04:57;13.90;58.90
47845;DHT22;33605;48.822;8.796;2023-10-31T03:07:23;13.90;58.80
47845;DHT22;33605;48.822;8.796;2023-10-31T03:09:49;13.90;58.70
47845;DHT22;33605;48.822;8.796;2023-10-31T03:12:14;13.90;58.70
47845;DHT22;33605;48.822;8.796;2023-10-31T03:14:40;13.80;58.70
47845;DHT22;33605;48.822;8.796;2023-10-31T03:17:05;13.80;58.70
47845;DHT22;33605;48.822;8.796;2023-10-31T03:19:31;13.80;58.70
47845;DHT22;33605;48.822;8.796;2023-10-31T03:21:56;13.80;58.70
47845;DHT22;33605;48.822;8.796;2023-10-31T03:24:22;13.80;58.70
47845;DHT22;33605;48.822;8.796;2023-10-31T03:26:47;13.80;58.30
47845;DHT22;33605;48.822;8.796;2023-10-31T03:29:13;13.80;58.10
47845;DHT22;33605;48.822;8.796;2023-10-31T03:31:38;13.80;58.10
47845;DHT22;33605;48.822;8.796;2023-10-31T03:34:04;13.80;58.00
47845;DHT22;33605;48.822;8.796;2023-10-31T03:36:30;13.80;58.10
47845;DHT22;33605;48.822;8.796;2023-10-31T03:38:56;13.80;58.00
47845;DHT22;33605;48.822;8.796;2023-10-31T03:41:22;13.70;57.90
47845;DHT22;33605;48.822;8.796;2023-10-31T03:43:47;13.80;58.60
47845;DHT22;33605;48.822;8.796;2023-10-31T03:46:13;13.70;57.90
47845;DHT22;33605;48.822;8.796;2023-10-31T03:48:39;13.70;57.80
47845;DHT22;33605;48.822;8.796;2023-10-31T03:51:05;13.70;57.90
47845;DHT22;33605;48.822;8.796;2023-10-31T03:53:32;13.70;57.90
47845;DHT22;33605;48.822;8.796;2023-10-31T03:55:59;13.60;57.70
47845;DHT22;33605;48.822;8.796;2023-10-31T03:58:26;13.60;57.80
47845;DHT22;33605;48.822;8.796;2023-10-31T04:00:52;13.60;58.00
47845;DHT22;33605;48.822;8.796;2023-10-31T04:03:18;13.60;58.00
47845;DHT22;33605;48.822;8.796;2023-10-31T04:05:43;13.60;58.10
47845;DHT22;33605;48.822;8.796;2023-10-31T04:08:09;13.60;58.10
47845;DHT22;33605;48.822;8.796;2023-10-31T04:10:35;13.60;58.00
47845;DHT22;33605;48.822;8.796;2023-10-31T04:13:01;13.60;58.00
47845;DHT22;33605;48.822;8.796;2023-10-31T04:15:26;13.60;58.10
47845;DHT22;33605;48.822;8.796;2023-10-31T04:17:52;13.50;57.90
47845;DHT22;33605;48.822;8.796;2023-10-31T04:20:18;13.50;57.90
47845;DHT22;33605;48.822;8.796;2023-10-31T04:22:43;13.50;57.60
47845;DHT22;33605;48.822;8.796;2023-10-31T04:25:09;13.50;57.50
47845;DHT22;33605;48.822;8.796;2023-10-31T04:27:35;13.40;57.10
47845;DHT22;33605;48.822;8.796;2023-10-31T04:30:00;13.40;56.90
47845;DHT22;33605;48.822;8.796;2023-10-31T04:32:29;13.40;56.90
47845;DHT22;33605;48.822;8.796;2023-10-31T04:34:55;13.30;56.70
47845;DHT22;33605;48.822;8.796;2023-10-31T04:37:20;13.30;56.80
47845;DHT22;33605;48.822;8.796;2023-10-31T04:39:46;13.30;56.90
47845;DHT22;33605;48.822;8.796;2023-10-31T04:42:11;13.20;56.80
47845;DHT22;33605;48.822;8.796;2023-10-31T04:44:38;13.20;56.90
47845;DHT22;33605;48.822;8.796;2023-10-31T04:47:04;13.20;57.10
47845;DHT22;33605;48.822;8.796;2023-10-31T04:49:29;13.10;57.10
47845;DHT22;33605;48.822;8.796;2023-10-31T04:51:55;13.10;57.20
47845;DHT22;33605;48.822;8.796;2023-10-31T04:54:20;13.00;56.90
47845;DHT22;33605;48.822;8.796;2023-10-31T04:56:47;13.00;56.90
47845;DHT22;33605;48.822;8.796;2023-10-31T04:59:13;13.00;56.80
47845;DHT22;33605;48.822;8.796;2023-10-31T05:01:38;12.90;56.70
47845;DHT22;33605;48.822;8.796;2023-10-31T05:04:04;12.90;56.70
47845;DHT22;33605;48.822;8.796;2023-10-31T05:06:30;12.90;56.70
47845;DHT22;33605;48.822;8.796;2023-10-31T05:08:55;12.90;56.80
47845;DHT22;33605;48.822;8.796;2023-10-31T05:11:21;12.90;56.80
47845;DHT22;33605;48.822;8.796;2023-10-31T05:13:46;12.90;56.80
47845;DHT22;33605;48.822;8.796;2023-10-31T05:16:12;12.80;56.80
47845;DHT22;33605;48.822;8.796;2023-10-31T05:18:38;12.80;56.80
47845;DHT22;33605;48.822;8.796;2023-10-31T05:21:04;12.80;56.70
47845;DHT22;33605;48.822;8.796;2023-10-31T05:23:30;12.80;56.70
47845;DHT22;33605;48.822;8.796;2023-10-31T05:25:55;12.70;56.40
47845;DHT22;33605;48.822;8.796;2023-10-31T05:28:21;12.70;56.50
47845;DHT22;33605;48.822;8.796;2023-10-31T05:30:47;12.70;56.50
47845;DHT22;33605;48.822;8.796;2023-10-31T05:33:15;12.70;56.50
47845;DHT22;33605;48.822;8.796;2023-10-31T05:35:41;12.70;56.60
47845;DHT22;33605;48.822;8.796;2023-10-31T05:38:06;12.70;56.60
47845;DHT22;33605;48.822;8.796;2023-10-31T05:40:32;12.70;56.60
47845;DHT22;33605;48.822;8.796;2023-10-31T05:43:01;12.70;56.60
47845;DHT22;33605;48.822;8.796;2023-10-31T05:45:26;12.70;56.70
47845;DHT22;33605;48.822;8.796;2023-10-31T05:47:52;12.70;56.60
47845;DHT22;33605;48.822;8.796;2023-10-31T05:50:17;12.70;56.40
47845;DHT22;33605;48.822;8.796;2023-10-31T05:52:43;12.70;56.30
47845;DHT22;33605;48.822;8.796;2023-10-31T05:55:08;12.70;56.20
47845;DHT22;33605;48.822;8.796;2023-10-31T05:57:34;12.70;56.20
47845;DHT22;33605;48.822;8.796;2023-10-31T05:59:59;12.70;56.30
47845;DHT22;33605;48.822;8.796;2023-10-31T06:02:25;12.70;56.00
47845;DHT22;33605;48.822;8.796;2023-10-31T06:04:50;12.70;55.80
47845;DHT22;33605;48.822;8.796;2023-10-31T06:07:16;12.80;56.00
47845;DHT22;33605;48.822;8.796;2023-10-31T06:09:41;12.70;55.60
47845;DHT22;33605;48.822;8.796;2023-10-31T06:12:07;12.80;55.60
47845;DHT22;33605;48.822;8.796;2023-10-31T06:14:32;12.80;55.50
47845;DHT22;33605;48.822;8.796;2023-10-31T06:16:58;12.80;55.30
47845;DHT22;33605;48.822;8.796;2023-10-31T06:19:24;12.90;55.30
47845;DHT22;33605;48.822;8.796;2023-10-31T06:21:50;12.90;55.30
47845;DHT22;33605;48.822;8.796;2023-10-31T06:24:15;12.90;55.20
47845;DHT22;33605;48.822;8.796;2023-10-31T06:26:41;12.90;55.30
47845;DHT22;33605;48.822;8.796;2023-10-31T06:29:07;12.90;55.10
47845;DHT22;33605;48.822;8.796;2023-10-31T06:31:33;12.90;55.00
47845;DHT22;33605;48.822;8.796;2023-10-31T06:33:59;12.90;55.00
47845;DHT22;33605;48.822;8.796;2023-10-31T06:36:25;12.90;55.00
47845;DHT22;33605;48.822;8.796;2023-10-31T06:38:50;12.90;55.00
47845;DHT22;33605;48.822;8.796;2023-10-31T06:41:16;12.90;55.10
47845;DHT22;33605;48.822;8.796;2023-10-31T06:43:42;12.90;55.10
47845;DHT22;33605;48.822;8.796;2023-10-31T06:46:07;13.00;55.20
47845;DHT22;33605;48.822;8.796;2023-10-31T06:48:33;13.00;55.30
47845;DHT22;33605;48.822;8.796;2023-10-31T06:50:59;13.00;55.20
47845;DHT22;33605;48.822;8.796;2023-10-31T06:53:24;13.10;55.20
47845;DHT22;33605;48.822;8.796;2023-10-31T06:55:50;13.10;55.20
47845;DHT22;33605;48.822;8.796;2023-10-31T06:58:16;13.10;55.10
47845;DHT22;33605;48.822;8.796;2023-10-31T07:00:41;13.20;55.20
47845;DHT22;33605;48.822;8.796;2023-10-31T07:03:07;13.20;55.10
47845;DHT22;33605;48.822;8.796;2023-10-31T07:05:37;13.20;55.10
47845;DHT22;33605;48.822;8.796;2023-10-31T07:08:04;13.20;55.00
47845;DHT22;33605;48.822;8.796;2023-10-31T07:10:30;13.20;55.00
47845;DHT22;33605;48.822;8.796;2023-10-31T07:12:55;13.30;55.10
47845;DHT22;33605;48.822;8.796;2023-10-31T07:15:21;13.30;55.20
47845;DHT22;33605;48.822;8.796;2023-10-31T07:17:47;13.30;55.20
47845;DHT22;33605;48.822;8.796;2023-10-31T07:20:13;13.40;55.40
47845;DHT22;33605;48.822;8.796;2023-10-31T07:22:39;13.30;55.30
47845;DHT22;33605;48.822;8.796;2023-10-31T07:25:06;13.40;55.50
47845;DHT22;33605;48.822;8.796;2023-10-31T07:27:31;13.40;55.50
47845;DHT22;33605;48.822;8.796;2023-10-31T07:29:57;13.40;55.60
47845;DHT22;33605;48.822;8.796;2023-10-31T07:32:22;13.40;55.60
47845;DHT22;33605;48.822;8.796;2023-10-31T07:34:48;13.40;55.70
47845;DHT22;33605;48.822;8.796;2023-10-31T07:37:14;13.50;55.70
47845;DHT22;33605;48.822;8.796;2023-10-31T07:39:39;13.50;55.60
47845;DHT22;33605;48.822;8.796;2023-10-31T07:42:05;13.50;55.60
47845;DHT22;33605;48.822;8.796;2023-10-31T07:44:31;13.50;55.60
47845;DHT22;33605;48.822;8.796;2023-10-31T07:46:57;13.50;55.60
47845;DHT22;33605;48.822;8.796;2023-10-31T07:49:22;13.60;55.60
47845;DHT22;33605;48.822;8.796;2023-10-31T07:51:48;13.60;55.40
47845;DHT22;33605;48.822;8.796;2023-10-31T07:54:14;13.60;55.60
47845;DHT22;33605;48.822;8.796;2023-10-31T07:56:41;13.60;55.40
47845;DHT22;33605;48.822;8.796;2023-10-31T21:26:58;17.90;62.70
47845;DHT22;33605;48.822;8.796;2023-10-31T21:29:24;14.00;56.60
47845;DHT22;33605;48.822;8.796;2023-10-31T21:31:50;13.90;56.60
47845;DHT22;33605;48.822;8.796;2023-10-31T21:34:15;13.90;56.50
47845;DHT22;33605;48.822;8.796;2023-10-31T21:36:41;13.90;56.40
47845;DHT22;33605;48.822;8.796;2023-10-31T21:39:07;13.90;56.50
47845;DHT22;33605;48.822;8.796;2023-10-31T21:41:32;13.80;56.30
47845;DHT22;33605;48.822;8.796;2023-10-31T21:43:58;13.80;56.30
47845;DHT22;33605;48.822;8.796;2023-10-31T21:46:23;13.80;56.30
47845;DHT22;33605;48.822;8.796;2023-10-31T21:48:49;13.80;56.30
47845;DHT22;33605;48.822;8.796;2023-10-31T21:51:15;13.80;56.30
47845;DHT22;33605;48.822;8.796;2023-10-31T21:53:41;13.70;56.20
47845;DHT22;33605;48.822;8.796;2023-10-31T21:56:06;13.70;56.20
47845;DHT22;33605;48.822;8.796;2023-10-31T21:58:32;13.70;56.20
47845;DHT22;33605;48.822;8.796;2023-10-31T22:00:57;13.70;56.20
47845;DHT22;33605;48.822;8.796;2023-10-31T22:03:24;13.70;56.20
47845;DHT22;33605;48.822;8.796;2023-10-31T22:05:50;13.70;56.20
47845;DHT22;33605;48.822;8.796;2023-10-31T22:08:16;13.60;56.00
47845;DHT22;33605;48.822;8.796;2023-10-31T22:10:41;13.60;56.00
47845;DHT22;33605;48.822;8.796;2023-10-31T22:13:07;13.60;56.00
47845;DHT22;33605;48.822;8.796;2023-10-31T22:15:32;13.60;56.10
47845;DHT22;33605;48.822;8.796;2023-10-31T22:17:58;13.60;56.10
47845;DHT22;33605;48.822;8.796;2023-10-31T22:20:23;13.60;56.00
47845;DHT22;33605;48.822;8.796;2023-10-31T22:22:49;13.60;56.00
47845;DHT22;33605;48.822;8.796;2023-10-31T22:25:14;13.60;56.00
47845;DHT22;33605;48.822;8.796;2023-10-31T22:27:41;13.60;56.70
47845;DHT22;33605;48.822;8.796;2023-10-31T22:30:06;13.50;56.00
47845;DHT22;33605;48.822;8.796;2023-10-31T22:32:35;13.50;56.00
47845;DHT22;33605;48.822;8.796;2023-10-31T22:35:01;13.50;56.00
47845;DHT22;33605;48.822;8.796;2023-10-31T22:37:27;13.50;56.10
47845;DHT22;33605;48.822;8.796;2023-10-31T22:39:53;13.50;56.10
47845;DHT22;33605;48.822;8.796;2023-10-31T22:42:18;13.50;56.20
47845;DHT22;33605;48.822;8.796;2023-10-31T22:44:44;13.50;56.30
47845;DHT22;33605;48.822;8.796;2023-10-31T22:47:09;13.50;56.30
47845;DHT22;33605;48.822;8.796;2023-10-31T22:49:35;13.50;56.40
47845;DHT22;33605;48.822;8.796;2023-10-31T22:52:01;13.50;56.50
47845;DHT22;33605;48.822;8.796;2023-10-31T22:54:26;13.50;56.60
47845;DHT22;33605;48.822;8.796;2023-10-31T22:56:52;13.50;56.60
47845;DHT22;33605;48.822;8.796;2023-10-31T22:59:17;13.50;56.70
47845;DHT22;33605;48.822;8.796;2023-10-31T23:01:43;13.50;56.80
47845;DHT22;33605;48.822;8.796;2023-10-31T23:04:08;13.50;56.80
47845;DHT22;33605;48.822;8.796;2023-10-31T23:06:34;13.50;56.80
47845;DHT22;33605;48.822;8.796;2023-10-31T23:09:00;13.50;56.80
47845;DHT22;33605;48.822;8.796;2023-10-31T23:11:26;13.50;56.90
47845;DHT22;33605;48.822;8.796;2023-10-31T23:13:52;13.60;57.00
47845;DHT22;33605;48.822;8.796;2023-10-31T23:16:17;13.60;57.10
47845;DHT22;33605;48.822;8.796;2023-10-31T23:18:43;13.50;57.10
47845;DHT22;33605;48.822;8.796;2023-10-31T23:21:09;13.60;57.20
47845;DHT22;33605;48.822;8.796;2023-10-31T23:23:35;13.60;57.20
47845;DHT22;33605;48.822;8.796;2023-10-31T23:26:00;13.60;57.20
47845;DHT22;33605;48.822;8.796;2023-10-31T23:28:26;13.60;57.40
47845;DHT22;33605;48.822;8.796;2023-10-31T23:30:51;13.60;57.20
47845;DHT22;33605;48.822;8.796;2023-10-31T23:33:17;13.60;57.20
47845;DHT22;33605;48.822;8.796;2023-10-31T23:35:43;13.70;57.30
47845;DHT22;33605;48.822;8.796;2023-10-31T23:38:08;13.60;57.20
47845;DHT22;33605;48.822;8.796;2023-10-31T23:40:34;13.60;57.40
47845;DHT22;33605;48.822;8.796;2023-10-31T23:43:00;13.60;57.50
47845;DHT22;33605;48.822;8.796;2023-10-31T23:45:25;13.60;57.70
47845;DHT22;33605;48.822;8.796;2023-10-31T23:47:51;13.60;57.80
47845;DHT22;33605;48.822;8.796;2023-10-31T23:50:16;13.60;58.00
47845;DHT22;33605;48.822;8.796;2023-10-31T23:52:42;13.60;58.10
47845;DHT22;33605;48.822;8.796;2023-10-31T23:55:08;13.60;58.20
47845;DHT22;33605;48.822;8.796;2023-10-31T23:57:33;13.60;58.30
47845;DHT22;33605;48.822;8.796;2023-10-31T23:59:59;13.70;58.40
